sensor_id;sensor_type;location;lat;lon;timestamp;pressure;altitude;pressure_sealevel;temperature;humidity
64967;BME280;51710;38.732;-121.358;2023-12-20T00:00:19;100198.41;;;17.97;82.42
64967;BME280;51710;38.732;-121.358;2023-12-20T00:02:46;100194.06;;;17.96;82.66
64967;BME280;51710;38.732;-121.358;2023-12-20T00:05:16;100202.38;;;17.95;83.12
64967;BME280;51710;38.732;-121.358;2023-12-20T00:07:42;100197.22;;;17.93;82.90
64967;BME280;51710;38.732;-121.358;2023-12-20T00:10:08;100198.22;;;17.92;82.97
64967;BME280;51710;38.732;-121.358;2023-12-20T00:12:35;100197.03;;;17.88;82.94
64967;BME280;51710;38.732;-121.358;2023-12-20T00:15:01;100196.66;;;17.85;83.14
64967;BME280;51710;38.732;-121.358;2023-12-20T00:17:27;100199.56;;;17.83;83.21
64967;BME280;51710;38.732;-121.358;2023-12-20T00:19:53;100197.28;;;17.80;83.38
64967;BME280;51710;38.732;-121.358;2023-12-20T00:22:20;100178.03;;;17.77;83.54
64967;BME280;51710;38.732;-121.358;2023-12-20T00:24:46;100180.09;;;17.75;83.67
64967;BME280;51710;38.732;-121.358;2023-12-20T00:27:12;100184.69;;;17.74;83.85
64967;BME280;51710;38.732;-121.358;2023-12-20T00:29:38;100184.69;;;17.74;83.83
64967;BME280;51710;38.732;-121.358;2023-12-20T00:32:05;100187.38;;;17.74;83.96
64967;BME280;51710;38.732;-121.358;2023-12-20T00:34:31;100185.09;;;17.71;83.97
64967;BME280;51710;38.732;-121.358;2023-12-20T00:36:58;100171.06;;;17.69;84.01
64967;BME280;51710;38.732;-121.358;2023-12-20T00:39:24;100179.31;;;17.68;84.08
64967;BME280;51710;38.732;-121.358;2023-12-20T00:41:50;100185.97;;;17.65;84.27
64967;BME280;51710;38.732;-121.358;2023-12-20T00:44:16;100177.28;;;17.63;84.28
64967;BME280;51710;38.732;-121.358;2023-12-20T00:46:43;100171.28;;;17.61;84.48
64967;BME280;51710;38.732;-121.358;2023-12-20T00:49:09;100183.13;;;17.60;84.45
64967;BME280;51710;38.732;-121.358;2023-12-20T00:51:35;100188.28;;;17.62;84.78
64967;BME280;51710;38.732;-121.358;2023-12-20T00:54:02;100175.66;;;17.62;84.65
64967;BME280;51710;38.732;-121.358;2023-12-20T00:56:28;100182.06;;;17.61;84.52
64967;BME280;51710;38.732;-121.358;2023-12-20T00:58:54;100188.28;;;17.62;84.64
64967;BME280;51710;38.732;-121.358;2023-12-20T01:01:21;100176.44;;;17.63;84.71
64967;BME280;51710;38.732;-121.358;2023-12-20T01:03:47;100188.91;;;17.64;84.79
64967;BME280;51710;38.732;-121.358;2023-12-20T01:06:17;100197.19;;;17.62;84.94
64967;BME280;51710;38.732;-121.358;2023-12-20T01:08:43;100190.13;;;17.61;84.75
64967;BME280;51710;38.732;-121.358;2023-12-20T01:11:09;100199.69;;;17.57;85.03
64967;BME280;51710;38.732;-121.358;2023-12-20T01:13:35;100200.13;;;17.54;85.14
64967;BME280;51710;38.732;-121.358;2023-12-20T01:16:02;100213.41;;;17.49;85.55
64967;BME280;51710;38.732;-121.358;2023-12-20T01:18:28;100220.06;;;17.47;85.88
64967;BME280;51710;38.732;-121.358;2023-12-20T01:20:54;100227.50;;;17.45;86.40
64967;BME280;51710;38.732;-121.358;2023-12-20T01:23:21;100233.09;;;17.37;86.89
64967;BME280;51710;38.732;-121.358;2023-12-20T01:25:48;100228.41;;;17.26;87.22
64967;BME280;51710;38.732;-121.358;2023-12-20T01:28:15;100210.03;;;17.03;87.30
64967;BME280;51710;38.732;-121.358;2023-12-20T01:30:41;100210.69;;;16.79;87.65
64967;BME280;51710;38.732;-121.358;2023-12-20T01:33:08;100218.19;;;16.57;87.72
64967;BME280;51710;38.732;-121.358;2023-12-20T01:35:34;100223.13;;;16.41;88.13
64967;BME280;51710;38.732;-121.358;2023-12-20T01:38:01;100228.09;;;16.24;88.46
64967;BME280;51710;38.732;-121.358;2023-12-20T01:40:27;100239.66;;;16.12;88.82
64967;BME280;51710;38.732;-121.358;2023-12-20T01:43:07;100242.50;;;15.91;89.00
64967;BME280;51710;38.732;-121.358;2023-12-20T01:45:34;100241.63;;;15.70;90.09
64967;BME280;51710;38.732;-121.358;2023-12-20T01:48:01;100247.56;;;15.59;90.34
64967;BME280;51710;38.732;-121.358;2023-12-20T01:50:29;100235.34;;;15.44;91.72
64967;BME280;51710;38.732;-121.358;2023-12-20T01:52:58;100194.97;;;15.31;94.64
64967;BME280;51710;38.732;-121.358;2023-12-20T01:55:29;100210.84;;;15.19;95.38
64967;BME280;51710;38.732;-121.358;2023-12-20T01:57:58;100220.72;;;15.19;95.57
64967;BME280;51710;38.732;-121.358;2023-12-20T02:00:27;100218.88;;;15.19;96.03
64967;BME280;51710;38.732;-121.358;2023-12-20T02:02:54;100216.84;;;15.21;95.96
64967;BME280;51710;38.732;-121.358;2023-12-20T02:05:21;100209.41;;;15.23;96.12
64967;BME280;51710;38.732;-121.358;2023-12-20T02:07:48;100205.50;;;15.26;96.35
64967;BME280;51710;38.732;-121.358;2023-12-20T02:10:15;100221.00;;;15.30;97.05
64967;BME280;51710;38.732;-121.358;2023-12-20T02:12:42;100221.22;;;15.35;96.56
64967;BME280;51710;38.732;-121.358;2023-12-20T02:15:08;100221.28;;;15.42;96.93
64967;BME280;51710;38.732;-121.358;2023-12-20T02:17:35;100217.97;;;15.46;96.77
64967;BME280;51710;38.732;-121.358;2023-12-20T02:20:02;100227.72;;;15.47;96.81
64967;BME280;51710;38.732;-121.358;2023-12-20T02:22:28;100224.63;;;15.50;96.80
64967;BME280;51710;38.732;-121.358;2023-12-20T02:24:54;100243.63;;;15.55;96.97
64967;BME280;51710;38.732;-121.358;2023-12-20T02:27:22;100241.16;;;15.60;96.84
64967;BME280;51710;38.732;-121.358;2023-12-20T02:29:50;100234.38;;;15.64;97.05
64967;BME280;51710;38.732;-121.358;2023-12-20T02:32:20;100244.09;;;15.65;96.98
64967;BME280;51710;38.732;-121.358;2023-12-20T02:34:49;100245.75;;;15.66;97.16
64967;BME280;51710;38.732;-121.358;2023-12-20T02:37:15;100241.22;;;15.67;97.23
64967;BME280;51710;38.732;-121.358;2023-12-20T02:39:41;100239.31;;;15.67;97.12
64967;BME280;51710;38.732;-121.358;2023-12-20T02:42:08;100238.31;;;15.68;97.75
64967;BME280;51710;38.732;-121.358;2023-12-20T02:44:34;100236.06;;;15.72;97.67
64967;BME280;51710;38.732;-121.358;2023-12-20T02:47:00;100244.53;;;15.75;97.45
64967;BME280;51710;38.732;-121.358;2023-12-20T02:49:26;100246.19;;;15.76;97.99
64967;BME280;51710;38.732;-121.358;2023-12-20T02:51:53;100248.44;;;15.79;97.95
64967;BME280;51710;38.732;-121.358;2023-12-20T02:54:19;100241.03;;;15.82;98.10
64967;BME280;51710;38.732;-121.358;2023-12-20T02:56:45;100236.28;;;15.84;98.05
64967;BME280;51710;38.732;-121.358;2023-12-20T02:59:11;100242.06;;;15.87;98.04
64967;BME280;51710;38.732;-121.358;2023-12-20T03:01:45;100233.00;;;15.88;98.23
64967;BME280;51710;38.732;-121.358;2023-12-20T03:04:12;100230.75;;;15.92;97.98
64967;BME280;51710;38.732;-121.358;2023-12-20T03:06:38;100243.13;;;15.93;97.72
64967;BME280;51710;38.732;-121.358;2023-12-20T03:09:05;100237.53;;;15.94;97.71
64967;BME280;51710;38.732;-121.358;2023-12-20T03:11:31;100238.38;;;15.95;97.07
64967;BME280;51710;38.732;-121.358;2023-12-20T03:13:57;100244.75;;;15.94;97.38
64967;BME280;51710;38.732;-121.358;2023-12-20T03:16:24;100244.59;;;15.95;97.44
64967;BME280;51710;38.732;-121.358;2023-12-20T03:18:50;100249.13;;;15.95;97.22
64967;BME280;51710;38.732;-121.358;2023-12-20T03:21:16;100249.75;;;15.97;97.29
64967;BME280;51710;38.732;-121.358;2023-12-20T03:23:43;100251.19;;;15.99;97.21
64967;BME280;51710;38.732;-121.358;2023-12-20T03:26:10;100249.97;;;16.02;97.09
64967;BME280;51710;38.732;-121.358;2023-12-20T03:28:36;100245.81;;;16.06;97.16
64967;BME280;51710;38.732;-121.358;2023-12-20T03:31:03;100248.13;;;16.09;96.90
64967;BME280;51710;38.732;-121.358;2023-12-20T03:33:29;100244.38;;;16.10;96.53
64967;BME280;51710;38.732;-121.358;2023-12-20T03:35:56;100241.69;;;16.10;96.42
64967;BME280;51710;38.732;-121.358;2023-12-20T03:38:22;100249.56;;;16.11;96.00
64967;BME280;51710;38.732;-121.358;2023-12-20T03:40:51;100253.91;;;16.12;96.12
64967;BME280;51710;38.732;-121.358;2023-12-20T03:43:17;100244.19;;;16.11;95.88
64967;BME280;51710;38.732;-121.358;2023-12-20T03:45:43;100249.56;;;16.11;95.77
64967;BME280;51710;38.732;-121.358;2023-12-20T03:48:10;100252.03;;;16.13;95.50
64967;BME280;51710;38.732;-121.358;2023-12-20T03:50:36;100250.38;;;16.12;95.34
64967;BME280;51710;38.732;-121.358;2023-12-20T03:53:02;100256.81;;;16.11;95.04
64967;BME280;51710;38.732;-121.358;2023-12-20T03:55:29;100258.25;;;16.07;94.79
64967;BME280;51710;38.732;-121.358;2023-12-20T03:57:55;100254.09;;;16.04;94.93
64967;BME280;51710;38.732;-121.358;2023-12-20T04:00:22;100258.84;;;16.02;94.97
64967;BME280;51710;38.732;-121.358;2023-12-20T04:02:48;100255.75;;;15.99;94.91
64967;BME280;51710;38.732;-121.358;2023-12-20T04:05:14;100256.13;;;15.96;94.88
64967;BME280;51710;38.732;-121.358;2023-12-20T04:07:41;100253.88;;;15.93;94.79
64967;BME280;51710;38.732;-121.358;2023-12-20T04:10:07;100247.88;;;15.91;94.64
64967;BME280;51710;38.732;-121.358;2023-12-20T04:12:34;100256.97;;;15.90;94.81
64967;BME280;51710;38.732;-121.358;2023-12-20T04:15:00;100253.44;;;15.89;95.18
64967;BME280;51710;38.732;-121.358;2023-12-20T04:17:27;100259.44;;;15.91;95.43
64967;BME280;51710;38.732;-121.358;2023-12-20T04:19:53;100254.91;;;15.92;94.78
64967;BME280;51710;38.732;-121.358;2023-12-20T04:22:19;100253.25;;;15.91;95.13
64967;BME280;51710;38.732;-121.358;2023-12-20T04:24:46;100251.59;;;15.90;95.11
64967;BME280;51710;38.732;-121.358;2023-12-20T04:27:12;100250.75;;;15.89;95.27
64967;BME280;51710;38.732;-121.358;2023-12-20T04:29:38;100250.75;;;15.89;95.25
64967;BME280;51710;38.732;-121.358;2023-12-20T04:32:05;100247.44;;;15.87;95.36
64967;BME280;51710;38.732;-121.358;2023-12-20T04:34:31;100253.66;;;15.88;95.59
64967;BME280;51710;38.732;-121.358;2023-12-20T04:36:57;100257.34;;;15.87;95.51
64967;BME280;51710;38.732;-121.358;2023-12-20T04:39:24;100249.28;;;15.87;95.48
64967;BME280;51710;38.732;-121.358;2023-12-20T04:41:50;100250.34;;;15.86;95.33
64967;BME280;51710;38.732;-121.358;2023-12-20T04:44:16;100252.19;;;15.85;95.56
64967;BME280;51710;38.732;-121.358;2023-12-20T04:46:42;100251.97;;;15.87;95.51
64967;BME280;51710;38.732;-121.358;2023-12-20T04:49:09;100250.34;;;15.86;95.43
64967;BME280;51710;38.732;-121.358;2023-12-20T04:51:35;100260.25;;;15.85;95.53
64967;BME280;51710;38.732;-121.358;2023-12-20T04:54:02;100261.91;;;15.86;95.79
64967;BME280;51710;38.732;-121.358;2023-12-20T04:56:28;100251.16;;;15.86;95.52
64967;BME280;51710;38.732;-121.358;2023-12-20T04:58:55;100250.34;;;15.86;95.10
64967;BME280;51710;38.732;-121.358;2023-12-20T05:01:21;100255.72;;;15.86;95.41
64967;BME280;51710;38.732;-121.358;2023-12-20T05:03:47;100252.81;;;15.87;95.57
64967;BME280;51710;38.732;-121.358;2023-12-20T05:06:13;100255.28;;;15.89;95.20
64967;BME280;51710;38.732;-121.358;2023-12-20T05:08:40;100250.75;;;15.89;95.29
64967;BME280;51710;38.732;-121.358;2023-12-20T05:11:06;100252.59;;;15.89;95.42
64967;BME280;51710;38.732;-121.358;2023-12-20T05:13:33;100256.97;;;15.90;95.15
64967;BME280;51710;38.732;-121.358;2023-12-20T05:15:59;100261.72;;;15.88;95.16
64967;BME280;51710;38.732;-121.358;2023-12-20T05:18:25;100266.88;;;15.89;94.83
64967;BME280;51710;38.732;-121.358;2023-12-20T05:20:52;100271.19;;;15.90;94.83
64967;BME280;51710;38.732;-121.358;2023-12-20T05:23:18;100267.72;;;15.90;94.94
64967;BME280;51710;38.732;-121.358;2023-12-20T05:25:46;100274.50;;;15.92;94.48
64967;BME280;51710;38.732;-121.358;2023-12-20T05:28:12;100279.69;;;15.94;94.77
64967;BME280;51710;38.732;-121.358;2023-12-20T05:30:38;100274.31;;;15.94;94.39
64967;BME280;51710;38.732;-121.358;2023-12-20T05:33:04;100281.34;;;15.95;94.14
64967;BME280;51710;38.732;-121.358;2023-12-20T05:35:31;100283.00;;;15.96;93.94
64967;BME280;51710;38.732;-121.358;2023-12-20T05:37:57;100285.69;;;15.96;94.00
64967;BME280;51710;38.732;-121.358;2023-12-20T05:40:23;100291.69;;;15.98;93.81
64967;BME280;51710;38.732;-121.358;2023-12-20T05:42:50;100293.34;;;15.99;93.57
64967;BME280;51710;38.732;-121.358;2023-12-20T05:45:16;100292.31;;;16.00;93.49
64967;BME280;51710;38.732;-121.358;2023-12-20T05:47:42;100298.53;;;16.00;93.11
64967;BME280;51710;38.732;-121.358;2023-12-20T05:50:09;100292.94;;;16.02;93.17
64967;BME280;51710;38.732;-121.358;2023-12-20T05:52:35;100290.25;;;16.02;93.27
64967;BME280;51710;38.732;-121.358;2023-12-20T05:55:02;100291.09;;;16.02;92.77
64967;BME280;51710;38.732;-121.358;2023-12-20T05:57:28;100283.84;;;16.03;92.78
64967;BME280;51710;38.732;-121.358;2023-12-20T05:59:54;100276.81;;;16.02;92.67
64967;BME280;51710;38.732;-121.358;2023-12-20T06:02:21;100286.72;;;16.01;92.58
64967;BME280;51710;38.732;-121.358;2023-12-20T06:04:47;100282.19;;;16.02;92.47
64967;BME280;51710;38.732;-121.358;2023-12-20T06:07:14;100290.47;;;16.00;92.21
64967;BME280;51710;38.732;-121.358;2023-12-20T06:09:40;100290.47;;;16.00;92.29
64967;BME280;51710;38.732;-121.358;2023-12-20T06:12:07;100295.00;;;16.00;92.26
64967;BME280;51710;38.732;-121.358;2023-12-20T06:14:36;100293.34;;;15.99;92.19
64967;BME280;51710;38.732;-121.358;2023-12-20T06:17:03;100293.34;;;15.99;92.10
64967;BME280;51710;38.732;-121.358;2023-12-20T06:19:29;100295.22;;;15.98;91.96
64967;BME280;51710;38.732;-121.358;2023-12-20T06:21:55;100289.00;;;15.98;91.88
64967;BME280;51710;38.732;-121.358;2023-12-20T06:24:22;100291.69;;;15.98;91.97
64967;BME280;51710;38.732;-121.358;2023-12-20T06:26:48;100288.38;;;15.96;91.42
64967;BME280;51710;38.732;-121.358;2023-12-20T06:29:14;100283.00;;;15.96;91.95
64967;BME280;51710;38.732;-121.358;2023-12-20T06:31:40;100275.78;;;15.96;91.65
64967;BME280;51710;38.732;-121.358;2023-12-20T06:34:07;100270.19;;;15.98;91.80
64967;BME280;51710;38.732;-121.358;2023-12-20T06:36:33;100264.81;;;15.98;91.72
64967;BME280;51710;38.732;-121.358;2023-12-20T06:38:59;100265.66;;;15.98;91.65
64967;BME280;51710;38.732;-121.358;2023-12-20T06:41:26;100267.31;;;15.99;91.54
64967;BME280;51710;38.732;-121.358;2023-12-20T06:43:52;100269.78;;;16.01;91.72
64967;BME280;51710;38.732;-121.358;2023-12-20T06:46:19;100260.72;;;16.02;91.57
64967;BME280;51710;38.732;-121.358;2023-12-20T06:48:45;100256.97;;;16.03;91.59
64967;BME280;51710;38.732;-121.358;2023-12-20T06:51:15;100238.19;;;16.03;91.35
64967;BME280;51710;38.732;-121.358;2023-12-20T06:53:43;100237.16;;;16.04;91.09
64967;BME280;51710;38.732;-121.358;2023-12-20T06:56:11;100238.59;;;16.00;91.03
64967;BME280;51710;38.732;-121.358;2023-12-20T06:58:40;100234.25;;;15.99;91.08
64967;BME280;51710;38.732;-121.358;2023-12-20T07:01:12;100240.44;;;15.99;91.29
64967;BME280;51710;38.732;-121.358;2023-12-20T07:03:39;100241.50;;;15.98;91.27
64967;BME280;51710;38.732;-121.358;2023-12-20T07:06:08;100245.00;;;15.99;91.07
64967;BME280;51710;38.732;-121.358;2023-12-20T07:08:34;100242.31;;;15.99;91.42
64967;BME280;51710;38.732;-121.358;2023-12-20T07:11:01;100242.91;;;16.01;91.20
64967;BME280;51710;38.732;-121.358;2023-12-20T07:13:27;100239.22;;;16.02;90.94
64967;BME280;51710;38.732;-121.358;2023-12-20T07:15:54;100248.72;;;16.04;90.95
64967;BME280;51710;38.732;-121.358;2023-12-20T07:18:20;100248.72;;;16.04;90.86
64967;BME280;51710;38.732;-121.358;2023-12-20T07:20:46;100242.53;;;16.04;90.79
64967;BME280;51710;38.732;-121.358;2023-12-20T07:23:12;100248.72;;;16.04;90.67
64967;BME280;51710;38.732;-121.358;2023-12-20T07:25:39;100252.03;;;16.06;91.14
64967;BME280;51710;38.732;-121.358;2023-12-20T07:28:05;100252.44;;;16.10;91.16
64967;BME280;51710;38.732;-121.358;2023-12-20T07:30:31;100248.53;;;16.12;90.67
64967;BME280;51710;38.732;-121.358;2023-12-20T07:32:58;100248.34;;;16.14;90.61
64967;BME280;51710;38.732;-121.358;2023-12-20T07:35:24;100246.66;;;16.13;90.53
64967;BME280;51710;38.732;-121.358;2023-12-20T07:37:51;100245.63;;;16.14;90.56
64967;BME280;51710;38.732;-121.358;2023-12-20T07:40:17;100241.91;;;16.15;90.43
64967;BME280;51710;38.732;-121.358;2023-12-20T07:42:43;100239.00;;;16.16;90.57
64967;BME280;51710;38.732;-121.358;2023-12-20T07:45:09;100232.63;;;16.17;90.23
64967;BME280;51710;38.732;-121.358;2023-12-20T07:47:38;100231.78;;;16.17;90.06
64967;BME280;51710;38.732;-121.358;2023-12-20T07:50:06;100238.22;;;16.16;89.83
64967;BME280;51710;38.732;-121.358;2023-12-20T07:52:33;100225.00;;;16.14;89.75
64967;BME280;51710;38.732;-121.358;2023-12-20T07:54:59;100225.16;;;16.13;89.99
64967;BME280;51710;38.732;-121.358;2023-12-20T07:57:29;100224.75;;;16.09;89.46
64967;BME280;51710;38.732;-121.358;2023-12-20T07:59:56;100218.97;;;16.06;89.88
64967;BME280;51710;38.732;-121.358;2023-12-20T08:02:22;100215.69;;;16.04;89.80
64967;BME280;51710;38.732;-121.358;2023-12-20T08:04:48;100217.94;;;16.00;89.54
64967;BME280;51710;38.732;-121.358;2023-12-20T08:07:15;100221.84;;;15.98;89.86
64967;BME280;51710;38.732;-121.358;2023-12-20T08:09:41;100216.91;;;15.95;89.49
64967;BME280;51710;38.732;-121.358;2023-12-20T08:12:09;100211.09;;;15.91;89.47
64967;BME280;51710;38.732;-121.358;2023-12-20T08:14:35;100212.53;;;15.87;89.17
64967;BME280;51710;38.732;-121.358;2023-12-20T08:17:01;100209.44;;;15.84;89.45
64967;BME280;51710;38.732;-121.358;2023-12-20T08:19:31;100197.44;;;15.79;89.21
64967;BME280;51710;38.732;-121.358;2023-12-20T08:21:58;100212.94;;;15.77;89.44
64967;BME280;51710;38.732;-121.358;2023-12-20T08:24:24;100202.00;;;15.72;89.24
64967;BME280;51710;38.732;-121.358;2023-12-20T08:26:50;100213.94;;;15.70;89.05
64967;BME280;51710;38.732;-121.358;2023-12-20T08:29:16;100201.94;;;15.66;89.60
64967;BME280;51710;38.732;-121.358;2023-12-20T08:31:43;100211.03;;;15.65;89.53
64967;BME280;51710;38.732;-121.358;2023-12-20T08:34:09;100214.94;;;15.62;89.69
64967;BME280;51710;38.732;-121.358;2023-12-20T08:36:37;100211.63;;;15.60;89.39
64967;BME280;51710;38.732;-121.358;2023-12-20T08:39:03;100216.41;;;15.58;89.39
64967;BME280;51710;38.732;-121.358;2023-12-20T08:41:33;100214.72;;;15.57;89.56
64967;BME280;51710;38.732;-121.358;2023-12-20T08:43:59;100221.94;;;15.57;89.47
64967;BME280;51710;38.732;-121.358;2023-12-20T08:46:25;100220.50;;;15.54;89.21
64967;BME280;51710;38.732;-121.358;2023-12-20T08:48:52;100218.03;;;15.53;89.06
64967;BME280;51710;38.732;-121.358;2023-12-20T08:51:18;100226.28;;;15.51;89.24
64967;BME280;51710;38.732;-121.358;2023-12-20T08:53:45;100221.09;;;15.50;88.90
64967;BME280;51710;38.732;-121.358;2023-12-20T08:56:13;100222.34;;;15.47;89.07
64967;BME280;51710;38.732;-121.358;2023-12-20T08:58:39;100222.34;;;15.47;89.21
64967;BME280;51710;38.732;-121.358;2023-12-20T09:01:05;100225.03;;;15.47;88.90
64967;BME280;51710;38.732;-121.358;2023-12-20T09:03:33;100215.31;;;15.46;89.43
64967;BME280;51710;38.732;-121.358;2023-12-20T09:05:59;100220.66;;;15.46;88.93
64967;BME280;51710;38.732;-121.358;2023-12-20T09:08:26;100212.63;;;15.46;88.87
64967;BME280;51710;38.732;-121.358;2023-12-20T09:10:52;100213.66;;;15.45;88.89
64967;BME280;51710;38.732;-121.358;2023-12-20T09:13:18;100216.56;;;15.44;89.01
64967;BME280;51710;38.732;-121.358;2023-12-20T09:15:44;100216.75;;;15.42;89.08
64967;BME280;51710;38.732;-121.358;2023-12-20T09:18:11;100211.59;;;15.41;88.93
64967;BME280;51710;38.732;-121.358;2023-12-20T09:20:37;100214.28;;;15.41;88.97
64967;BME280;51710;38.732;-121.358;2023-12-20T09:23:03;100205.38;;;15.40;88.90
64967;BME280;51710;38.732;-121.358;2023-12-20T09:25:30;100198.34;;;15.39;88.91
64967;BME280;51710;38.732;-121.358;2023-12-20T09:27:56;100201.03;;;15.39;88.75
64967;BME280;51710;38.732;-121.358;2023-12-20T09:30:22;100203.88;;;15.38;88.70
64967;BME280;51710;38.732;-121.358;2023-12-20T09:32:49;100208.44;;;15.37;88.77
64967;BME280;51710;38.732;-121.358;2023-12-20T09:35:15;100205.75;;;15.37;88.97
64967;BME280;51710;38.732;-121.358;2023-12-20T09:37:42;100204.72;;;15.38;88.84
64967;BME280;51710;38.732;-121.358;2023-12-20T09:40:13;100208.91;;;15.41;88.57
64967;BME280;51710;38.732;-121.358;2023-12-20T09:42:58;100218.81;;;15.40;89.02
64967;BME280;51710;38.732;-121.358;2023-12-20T09:45:24;100217.13;;;15.39;88.77
64967;BME280;51710;38.732;-121.358;2023-12-20T09:47:53;100220.81;;;15.38;88.82
64967;BME280;51710;38.732;-121.358;2023-12-20T09:50:22;100214.63;;;15.38;88.79
64967;BME280;51710;38.732;-121.358;2023-12-20T09:52:53;100215.66;;;15.37;88.90
64967;BME280;51710;38.732;-121.358;2023-12-20T09:55:20;100214.81;;;15.36;89.19
64967;BME280;51710;38.732;-121.358;2023-12-20T09:57:47;100214.44;;;15.39;89.23
64967;BME280;51710;38.732;-121.358;2023-12-20T10:00:14;100216.13;;;15.40;89.27
64967;BME280;51710;38.732;-121.358;2023-12-20T10:03:00;100221.06;;;15.43;89.16
64967;BME280;51710;38.732;-121.358;2023-12-20T10:05:30;100225.22;;;15.46;88.92
64967;BME280;51710;38.732;-121.358;2023-12-20T10:07:58;100212.63;;;15.46;88.88
64967;BME280;51710;38.732;-121.358;2023-12-20T10:10:25;100214.28;;;15.47;88.81
64967;BME280;51710;38.732;-121.358;2023-12-20T10:13:04;100215.13;;;15.48;88.98
64967;BME280;51710;38.732;-121.358;2023-12-20T10:15:35;100218.63;;;15.48;88.86
64967;BME280;51710;38.732;-121.358;2023-12-20T10:18:02;100225.66;;;15.49;88.79
64967;BME280;51710;38.732;-121.358;2023-12-20T10:20:30;100229.34;;;15.48;88.71
64967;BME280;51710;38.732;-121.358;2023-12-20T10:23:00;100227.28;;;15.50;88.92
64967;BME280;51710;38.732;-121.358;2023-12-20T10:25:26;100231.66;;;15.51;88.96
64967;BME280;51710;38.732;-121.358;2023-12-20T10:28:13;100226.88;;;15.53;88.92
64967;BME280;51710;38.732;-121.358;2023-12-20T10:30:40;100228.34;;;15.56;88.58
64967;BME280;51710;38.732;-121.358;2023-12-20T10:33:07;100222.78;;;15.57;88.36
64967;BME280;51710;38.732;-121.358;2023-12-20T10:35:38;100217.41;;;15.57;88.38
64967;BME280;51710;38.732;-121.358;2023-12-20T10:38:05;100222.56;;;15.59;88.46
64967;BME280;51710;38.732;-121.358;2023-12-20T10:40:34;100221.56;;;15.60;88.69
64967;BME280;51710;38.732;-121.358;2023-12-20T10:43:02;100212.47;;;15.61;88.57
64967;BME280;51710;38.732;-121.358;2023-12-20T10:45:29;100214.75;;;15.64;88.20
64967;BME280;51710;38.732;-121.358;2023-12-20T10:47:56;100212.91;;;15.64;88.14
64967;BME280;51710;38.732;-121.358;2023-12-20T10:50:26;100206.50;;;15.65;88.08
64967;BME280;51710;38.732;-121.358;2023-12-20T10:52:52;100216.84;;;15.68;87.93
64967;BME280;51710;38.732;-121.358;2023-12-20T10:55:22;100211.06;;;15.71;88.27
64967;BME280;51710;38.732;-121.358;2023-12-20T10:57:50;100208.16;;;15.73;88.13
64967;BME280;51710;38.732;-121.358;2023-12-20T11:00:18;100198.25;;;15.73;87.97
64967;BME280;51710;38.732;-121.358;2023-12-20T11:02:45;100194.53;;;15.74;87.78
64967;BME280;51710;38.732;-121.358;2023-12-20T11:07:58;100199.69;;;15.76;87.80
64967;BME280;51710;38.732;-121.358;2023-12-20T11:10:43;100197.84;;;15.76;87.67
64967;BME280;51710;38.732;-121.358;2023-12-20T11:13:31;100207.56;;;15.77;87.42
64967;BME280;51710;38.732;-121.358;2023-12-20T11:15:59;100206.53;;;15.78;87.46
64967;BME280;51710;38.732;-121.358;2023-12-20T11:18:32;100202.78;;;15.79;87.45
64967;BME280;51710;38.732;-121.358;2023-12-20T11:21:03;100203.63;;;15.80;87.12
64967;BME280;51710;38.732;-121.358;2023-12-20T11:23:30;100205.47;;;15.79;87.18
64967;BME280;51710;38.732;-121.358;2023-12-20T11:26:00;100202.78;;;15.79;87.04
64967;BME280;51710;38.732;-121.358;2023-12-20T11:28:27;100203.84;;;15.78;87.10
64967;BME280;51710;38.732;-121.358;2023-12-20T11:30:57;100204.88;;;15.77;87.04
64967;BME280;51710;38.732;-121.358;2023-12-20T11:33:36;100203.22;;;15.76;86.97
64967;BME280;51710;38.732;-121.358;2023-12-20T11:36:06;100196.19;;;15.75;86.85
64967;BME280;51710;38.732;-121.358;2023-12-20T11:38:38;100192.88;;;15.73;86.99
64967;BME280;51710;38.732;-121.358;2023-12-20T11:41:15;100203.63;;;15.73;86.70
64967;BME280;51710;38.732;-121.358;2023-12-20T11:43:42;100195.78;;;15.72;86.79
64967;BME280;51710;38.732;-121.358;2023-12-20T11:46:09;100193.31;;;15.70;86.63
64967;BME280;51710;38.732;-121.358;2023-12-20T11:48:37;100196.19;;;15.69;86.95
64967;BME280;51710;38.732;-121.358;2023-12-20T11:51:11;100197.00;;;15.69;86.78
64967;BME280;51710;38.732;-121.358;2023-12-20T11:53:41;100196.00;;;15.70;86.60
64967;BME280;51710;38.732;-121.358;2023-12-20T11:56:11;100204.03;;;15.70;86.70
64967;BME280;51710;38.732;-121.358;2023-12-20T11:58:38;100202.38;;;15.69;86.63
64967;BME280;51710;38.732;-121.358;2023-12-20T12:01:05;100204.03;;;15.70;86.58
64967;BME280;51710;38.732;-121.358;2023-12-20T12:03:33;100215.59;;;15.71;86.67
64967;BME280;51710;38.732;-121.358;2023-12-20T12:05:59;100201.16;;;15.72;86.67
64967;BME280;51710;38.732;-121.358;2023-12-20T12:08:26;100201.34;;;15.70;86.28
64967;BME280;51710;38.732;-121.358;2023-12-20T12:10:53;100195.78;;;15.65;86.12
64967;BME280;51710;38.732;-121.358;2023-12-20T12:13:19;100208.94;;;15.60;86.49
64967;BME280;51710;38.732;-121.358;2023-12-20T12:15:46;100207.09;;;15.54;86.50
64967;BME280;51710;38.732;-121.358;2023-12-20T12:18:16;100211.81;;;15.52;86.76
64967;BME280;51710;38.732;-121.358;2023-12-20T12:20:42;100214.28;;;15.47;86.62
64967;BME280;51710;38.732;-121.358;2023-12-20T12:23:08;100202.94;;;15.45;86.56